sensor_id;sensor_type;location;lat;lon;timestamp;pressure;altitude;pressure_sealevel;temperature;humidity
66398;BME280;54877;51.504;3.894;2024-01-15T00:00:10;100645.28;;;6.00;68.81
66398;BME280;54877;51.504;3.894;2024-01-15T00:02:36;100640.03;;;6.00;68.35
66398;BME280;54877;51.504;3.894;2024-01-15T00:05:02;100650.50;;;6.02;68.69
66398;BME280;54877;51.504;3.894;2024-01-15T00:07:27;100651.09;;;6.10;68.64
66398;BME280;54877;51.504;3.894;2024-01-15T00:09:52;100634.84;;;5.99;68.94
66398;BME280;54877;51.504;3.894;2024-01-15T00:12:18;100631.78;;;5.84;68.34
66398;BME280;54877;51.504;3.894;2024-01-15T00:14:43;100627.16;;;5.93;67.82
66398;BME280;54877;51.504;3.894;2024-01-15T00:17:08;100622.00;;;5.89;66.94
66398;BME280;54877;51.504;3.894;2024-01-15T00:19:34;100620.09;;;5.95;66.41
66398;BME280;54877;51.504;3.894;2024-01-15T00:21:59;100610.25;;;6.00;66.17
66398;BME280;54877;51.504;3.894;2024-01-15T00:24:24;100605.59;;;6.08;65.70
66398;BME280;54877;51.504;3.894;2024-01-15T00:26:50;100603.09;;;6.05;65.65
66398;BME280;54877;51.504;3.894;2024-01-15T00:29:15;100596.91;;;6.06;65.62
66398;BME280;54877;51.504;3.894;2024-01-15T00:31:41;100597.00;;;6.04;65.75
66398;BME280;54877;51.504;3.894;2024-01-15T00:34:06;100602.28;;;6.03;65.73
66398;BME280;54877;51.504;3.894;2024-01-15T00:36:31;100600.47;;;6.05;65.67
66398;BME280;54877;51.504;3.894;2024-01-15T00:38:56;100601.38;;;6.04;65.71
66398;BME280;54877;51.504;3.894;2024-01-15T00:41:22;100608.88;;;5.89;66.22
66398;BME280;54877;51.504;3.894;2024-01-15T00:43:47;100600.31;;;5.83;66.17
66398;BME280;54877;51.504;3.894;2024-01-15T00:46:15;100600.78;;;5.96;65.39
66398;BME280;54877;51.504;3.894;2024-01-15T00:48:41;100604.31;;;5.95;64.98
66398;BME280;54877;51.504;3.894;2024-01-15T00:51:06;100600.03;;;5.92;65.46
66398;BME280;54877;51.504;3.894;2024-01-15T00:53:32;100589.69;;;5.87;66.00
66398;BME280;54877;51.504;3.894;2024-01-15T00:55:57;100592.50;;;5.81;66.25
66398;BME280;54877;51.504;3.894;2024-01-15T00:58:22;100587.94;;;5.88;66.10
66398;BME280;54877;51.504;3.894;2024-01-15T01:00:48;100587.97;;;5.86;66.03
66398;BME280;54877;51.504;3.894;2024-01-15T01:03:13;100592.22;;;5.90;66.04
66398;BME280;54877;51.504;3.894;2024-01-15T01:05:38;100578.16;;;5.91;65.74
66398;BME280;54877;51.504;3.894;2024-01-15T01:08:04;100592.38;;;5.84;66.15
66398;BME280;54877;51.504;3.894;2024-01-15T01:10:29;100581.59;;;5.94;65.74
66398;BME280;54877;51.504;3.894;2024-01-15T01:12:55;100585.34;;;5.86;66.21
66398;BME280;54877;51.504;3.894;2024-01-15T01:15:20;100578.16;;;5.91;65.94
66398;BME280;54877;51.504;3.894;2024-01-15T01:17:46;100584.22;;;5.94;66.01
66398;BME280;54877;51.504;3.894;2024-01-15T01:20:11;100586.97;;;5.90;65.93
66398;BME280;54877;51.504;3.894;2024-01-15T01:22:37;100582.78;;;5.83;66.70
66398;BME280;54877;51.504;3.894;2024-01-15T01:25:03;100579.25;;;5.84;66.89
66398;BME280;54877;51.504;3.894;2024-01-15T01:27:29;100576.03;;;5.76;66.65
66398;BME280;54877;51.504;3.894;2024-01-15T01:29:54;100566.13;;;5.84;66.28
66398;BME280;54877;51.504;3.894;2024-01-15T01:32:20;100571.31;;;5.87;66.11
66398;BME280;54877;51.504;3.894;2024-01-15T01:34:45;100568.66;;;5.87;65.68
66398;BME280;54877;51.504;3.894;2024-01-15T01:37:11;100568.72;;;5.86;65.20
66398;BME280;54877;51.504;3.894;2024-01-15T01:39:39;100571.31;;;5.87;65.15
66398;BME280;54877;51.504;3.894;2024-01-15T01:42:05;100566.31;;;5.78;65.24
66398;BME280;54877;51.504;3.894;2024-01-15T01:44:31;100568.78;;;5.83;65.21
66398;BME280;54877;51.504;3.894;2024-01-15T01:46:57;100570.38;;;5.88;65.17
66398;BME280;54877;51.504;3.894;2024-01-15T01:49:24;100571.19;;;5.90;65.46
66398;BME280;54877;51.504;3.894;2024-01-15T01:51:50;100568.56;;;5.90;65.39
66398;BME280;54877;51.504;3.894;2024-01-15T01:54:16;100563.25;;;5.92;65.59
66398;BME280;54877;51.504;3.894;2024-01-15T01:56:43;100565.84;;;5.94;65.54
66398;BME280;54877;51.504;3.894;2024-01-15T01:59:09;100558.75;;;5.96;65.40
66398;BME280;54877;51.504;3.894;2024-01-15T02:01:36;100563.06;;;5.97;65.38
66398;BME280;54877;51.504;3.894;2024-01-15T02:04:01;100561.38;;;5.96;65.78
66398;BME280;54877;51.504;3.894;2024-01-15T02:06:26;100558.66;;;5.99;65.91
66398;BME280;54877;51.504;3.894;2024-01-15T02:08:52;100565.59;;;6.00;65.68
66398;BME280;54877;51.504;3.894;2024-01-15T02:11:18;100567.31;;;6.01;65.71
66398;BME280;54877;51.504;3.894;2024-01-15T02:13:43;100567.31;;;6.01;65.89
66398;BME280;54877;51.504;3.894;2024-01-15T02:16:08;100566.31;;;6.05;65.71
66398;BME280;54877;51.504;3.894;2024-01-15T02:18:43;100567.22;;;6.04;65.66
66398;BME280;54877;51.504;3.894;2024-01-15T02:21:10;100556.72;;;6.04;65.52
66398;BME280;54877;51.504;3.894;2024-01-15T02:23:36;100558.53;;;6.02;65.57
66398;BME280;54877;51.504;3.894;2024-01-15T02:26:02;100557.59;;;6.03;65.31
66398;BME280;54877;51.504;3.894;2024-01-15T02:28:29;100563.69;;;6.05;65.19
66398;BME280;54877;51.504;3.894;2024-01-15T02:30:55;100556.13;;;5.96;64.97
66398;BME280;54877;51.504;3.894;2024-01-15T02:33:20;100561.31;;;5.97;64.88
66398;BME280;54877;51.504;3.894;2024-01-15T02:35:45;100553.59;;;5.93;64.67
66398;BME280;54877;51.504;3.894;2024-01-15T02:38:15;100564.22;;;5.89;65.06
66398;BME280;54877;51.504;3.894;2024-01-15T02:40:41;100557.22;;;5.88;64.67
66398;BME280;54877;51.504;3.894;2024-01-15T02:43:07;100554.59;;;5.88;64.46
66398;BME280;54877;51.504;3.894;2024-01-15T02:45:33;100543.25;;;5.88;64.01
66398;BME280;54877;51.504;3.894;2024-01-15T02:47:58;100548.63;;;5.83;63.63
66398;BME280;54877;51.504;3.894;2024-01-15T02:50:23;100546.69;;;5.90;63.66
66398;BME280;54877;51.504;3.894;2024-01-15T02:52:49;100546.50;;;5.95;63.03
66398;BME280;54877;51.504;3.894;2024-01-15T02:55:14;100547.47;;;5.92;63.07
66398;BME280;54877;51.504;3.894;2024-01-15T02:57:40;100549.94;;;5.97;62.96
66398;BME280;54877;51.504;3.894;2024-01-15T03:00:05;100555.94;;;6.00;62.73
66398;BME280;54877;51.504;3.894;2024-01-15T03:02:32;100544.38;;;6.06;62.55
66398;BME280;54877;51.504;3.894;2024-01-15T03:04:57;100546.94;;;6.07;62.38
66398;BME280;54877;51.504;3.894;2024-01-15T03:07:23;100544.38;;;6.06;62.41
66398;BME280;54877;51.504;3.894;2024-01-15T03:09:48;100546.31;;;6.01;62.52
66398;BME280;54877;51.504;3.894;2024-01-15T03:12:13;100537.41;;;6.05;62.50
66398;BME280;54877;51.504;3.894;2024-01-15T03:14:39;100541.91;;;6.01;62.46
66398;BME280;54877;51.504;3.894;2024-01-15T03:17:04;100521.75;;;6.02;62.06
66398;BME280;54877;51.504;3.894;2024-01-15T03:19:29;100521.75;;;6.02;62.29
66398;BME280;54877;51.504;3.894;2024-01-15T03:21:55;100532.97;;;6.05;61.93
66398;BME280;54877;51.504;3.894;2024-01-15T03:24:21;100523.34;;;6.06;61.45
66398;BME280;54877;51.504;3.894;2024-01-15T03:26:46;100525.06;;;6.07;61.61
66398;BME280;54877;51.504;3.894;2024-01-15T03:29:12;100517.97;;;6.09;61.74
66398;BME280;54877;51.504;3.894;2024-01-15T03:31:37;100520.50;;;6.12;61.64
66398;BME280;54877;51.504;3.894;2024-01-15T03:34:02;100523.00;;;6.15;61.43
66398;BME280;54877;51.504;3.894;2024-01-15T03:36:28;100515.03;;;6.18;61.82
66398;BME280;54877;51.504;3.894;2024-01-15T03:38:53;100516.03;;;6.14;62.05
66398;BME280;54877;51.504;3.894;2024-01-15T03:41:19;100508.81;;;6.19;61.66
66398;BME280;54877;51.504;3.894;2024-01-15T03:43:44;100517.53;;;6.21;61.87
66398;BME280;54877;51.504;3.894;2024-01-15T03:46:09;100514.72;;;6.25;61.76
66398;BME280;54877;51.504;3.894;2024-01-15T03:48:35;100506.81;;;6.27;61.46
66398;BME280;54877;51.504;3.894;2024-01-15T03:51:00;100511.91;;;6.30;61.19
66398;BME280;54877;51.504;3.894;2024-01-15T03:53:25;100504.22;;;6.25;61.37
66398;BME280;54877;51.504;3.894;2024-01-15T03:55:51;100500.69;;;6.26;61.50
66398;BME280;54877;51.504;3.894;2024-01-15T03:58:17;100494.44;;;6.29;61.45
66398;BME280;54877;51.504;3.894;2024-01-15T04:00:43;100500.50;;;6.31;61.46
66398;BME280;54877;51.504;3.894;2024-01-15T04:03:08;100501.41;;;6.30;61.45
66398;BME280;54877;51.504;3.894;2024-01-15T04:05:34;100490.88;;;6.30;61.62
66398;BME280;54877;51.504;3.894;2024-01-15T04:07:59;100488.31;;;6.28;61.67
66398;BME280;54877;51.504;3.894;2024-01-15T04:10:24;100485.63;;;6.30;61.59
66398;BME280;54877;51.504;3.894;2024-01-15T04:12:50;100489.06;;;6.32;61.43
66398;BME280;54877;51.504;3.894;2024-01-15T04:15:15;100487.34;;;6.31;61.53
66398;BME280;54877;51.504;3.894;2024-01-15T04:17:41;100483.94;;;6.29;61.53
66398;BME280;54877;51.504;3.894;2024-01-15T04:20:06;100479.75;;;6.23;61.71
66398;BME280;54877;51.504;3.894;2024-01-15T04:22:32;100487.34;;;6.31;61.51
66398;BME280;54877;51.504;3.894;2024-01-15T04:24:59;100482.22;;;6.28;61.51
66398;BME280;54877;51.504;3.894;2024-01-15T04:27:24;100477.81;;;6.28;61.21
66398;BME280;54877;51.504;3.894;2024-01-15T04:29:49;100478.91;;;6.23;61.79
66398;BME280;54877;51.504;3.894;2024-01-15T04:32:15;100469.25;;;6.23;61.97
66398;BME280;54877;51.504;3.894;2024-01-15T04:34:40;100471.81;;;6.25;62.14
66398;BME280;54877;51.504;3.894;2024-01-15T04:37:05;100467.38;;;6.27;62.26
66398;BME280;54877;51.504;3.894;2024-01-15T04:39:31;100475.38;;;6.24;62.42
66398;BME280;54877;51.504;3.894;2024-01-15T04:41:56;100469.28;;;6.22;62.22
66398;BME280;54877;51.504;3.894;2024-01-15T04:44:22;100475.81;;;6.12;62.42
66398;BME280;54877;51.504;3.894;2024-01-15T04:46:47;100461.41;;;6.22;61.95
66398;BME280;54877;51.504;3.894;2024-01-15T04:49:12;100463.69;;;6.08;62.33
66398;BME280;54877;51.504;3.894;2024-01-15T04:51:37;100464.72;;;6.04;62.11
66398;BME280;54877;51.504;3.894;2024-01-15T04:54:03;100464.66;;;6.05;62.17
66398;BME280;54877;51.504;3.894;2024-01-15T04:56:29;100458.84;;;5.97;62.62
66398;BME280;54877;51.504;3.894;2024-01-15T04:58:54;100460.44;;;6.01;62.20
66398;BME280;54877;51.504;3.894;2024-01-15T05:01:19;100464.28;;;5.93;61.86
66398;BME280;54877;51.504;3.894;2024-01-15T05:03:45;100458.94;;;5.94;61.52
66398;BME280;54877;51.504;3.894;2024-01-15T05:06:10;100451.31;;;5.88;61.50
66398;BME280;54877;51.504;3.894;2024-01-15T05:08:35;100452.16;;;5.88;61.32
66398;BME280;54877;51.504;3.894;2024-01-15T05:11:01;100449.59;;;5.87;61.71
66398;BME280;54877;51.504;3.894;2024-01-15T05:13:26;100455.59;;;5.90;61.40
66398;BME280;54877;51.504;3.894;2024-01-15T05:15:52;100458.16;;;5.92;61.42
66398;BME280;54877;51.504;3.894;2024-01-15T05:18:17;100447.47;;;5.97;61.14
66398;BME280;54877;51.504;3.894;2024-01-15T05:20:42;100455.72;;;5.87;61.27
66398;BME280;54877;51.504;3.894;2024-01-15T05:23:08;100450.75;;;5.78;61.70
66398;BME280;54877;51.504;3.894;2024-01-15T05:25:33;100466.94;;;5.91;61.24
66398;BME280;54877;51.504;3.894;2024-01-15T05:27:59;100471.56;;;5.60;64.74
66398;BME280;54877;51.504;3.894;2024-01-15T05:30:24;100497.84;;;5.33;66.74
66398;BME280;54877;51.504;3.894;2024-01-15T05:32:50;100487.91;;;5.17;67.70
66398;BME280;54877;51.504;3.894;2024-01-15T05:35:15;100478.22;;;4.93;68.66
66398;BME280;54877;51.504;3.894;2024-01-15T05:37:42;100463.91;;;4.77;69.11
66398;BME280;54877;51.504;3.894;2024-01-15T05:40:10;100460.03;;;4.88;68.48
66398;BME280;54877;51.504;3.894;2024-01-15T05:42:35;100462.03;;;4.80;68.14
66398;BME280;54877;51.504;3.894;2024-01-15T05:45:01;100445.53;;;4.77;68.33
66398;BME280;54877;51.504;3.894;2024-01-15T05:47:29;100445.53;;;4.77;68.36
66398;BME280;54877;51.504;3.894;2024-01-15T05:49:54;100449.56;;;4.87;67.78
66398;BME280;54877;51.504;3.894;2024-01-15T05:52:20;100445.78;;;4.95;67.55
66398;BME280;54877;51.504;3.894;2024-01-15T05:54:46;100444.81;;;4.98;67.34
66398;BME280;54877;51.504;3.894;2024-01-15T05:57:12;100449.09;;;5.00;67.83
66398;BME280;54877;51.504;3.894;2024-01-15T05:59:37;100456.41;;;5.17;67.23
66398;BME280;54877;51.504;3.894;2024-01-15T06:02:02;100459.66;;;4.99;69.17
66398;BME280;54877;51.504;3.894;2024-01-15T06:04:28;100456.75;;;5.08;69.84
66398;BME280;54877;51.504;3.894;2024-01-15T06:06:53;100448.19;;;5.27;69.07
66398;BME280;54877;51.504;3.894;2024-01-15T06:09:18;100464.47;;;5.37;68.92
66398;BME280;54877;51.504;3.894;2024-01-15T06:11:44;100453.97;;;5.37;69.56
66398;BME280;54877;51.504;3.894;2024-01-15T06:14:09;100444.97;;;5.44;69.04
66398;BME280;54877;51.504;3.894;2024-01-15T06:16:35;100443.91;;;5.50;68.81
66398;BME280;54877;51.504;3.894;2024-01-15T06:19:00;100441.28;;;5.50;68.72
66398;BME280;54877;51.504;3.894;2024-01-15T06:21:25;100443.84;;;5.51;67.57
66398;BME280;54877;51.504;3.894;2024-01-15T06:23:51;100432.97;;;5.62;67.27
66398;BME280;54877;51.504;3.894;2024-01-15T06:26:16;100429.34;;;5.66;66.77
66398;BME280;54877;51.504;3.894;2024-01-15T06:28:41;100432.94;;;5.63;66.37
66398;BME280;54877;51.504;3.894;2024-01-15T06:31:07;100432.69;;;5.69;66.04
66398;BME280;54877;51.504;3.894;2024-01-15T06:33:32;100436.19;;;5.70;65.59
66398;BME280;54877;51.504;3.894;2024-01-15T06:35:57;100437.03;;;5.70;65.39
66398;BME280;54877;51.504;3.894;2024-01-15T06:38:23;100442.09;;;5.75;65.52
66398;BME280;54877;51.504;3.894;2024-01-15T06:40:50;100428.06;;;5.76;64.71
66398;BME280;54877;51.504;3.894;2024-01-15T06:43:16;100440.47;;;5.72;64.73
66398;BME280;54877;51.504;3.894;2024-01-15T06:45:42;100435.97;;;5.76;64.64
66398;BME280;54877;51.504;3.894;2024-01-15T06:48:08;100433.97;;;5.82;63.95
66398;BME280;54877;51.504;3.894;2024-01-15T06:50:33;100438.41;;;5.80;63.60
66398;BME280;54877;51.504;3.894;2024-01-15T06:52:59;100440.13;;;5.81;63.41
66398;BME280;54877;51.504;3.894;2024-01-15T06:55:24;100442.66;;;5.84;63.08
66398;BME280;54877;51.504;3.894;2024-01-15T06:57:50;100446.47;;;5.76;63.07
66398;BME280;54877;51.504;3.894;2024-01-15T07:00:16;100436.28;;;5.67;63.10
66398;BME280;54877;51.504;3.894;2024-01-15T07:02:41;100442.28;;;5.70;63.08
66398;BME280;54877;51.504;3.894;2024-01-15T07:05:07;100442.28;;;5.70;62.70
66398;BME280;54877;51.504;3.894;2024-01-15T07:07:32;100435.31;;;5.69;62.54
66398;BME280;54877;51.504;3.894;2024-01-15T07:09:58;100436.38;;;5.64;62.70
66398;BME280;54877;51.504;3.894;2024-01-15T07:12:23;100431.88;;;5.67;62.66
66398;BME280;54877;51.504;3.894;2024-01-15T07:14:48;100435.31;;;5.69;62.92
66398;BME280;54877;51.504;3.894;2024-01-15T07:17:14;100435.19;;;5.72;62.85
66398;BME280;54877;51.504;3.894;2024-01-15T07:19:39;100431.78;;;5.70;62.72
66398;BME280;54877;51.504;3.894;2024-01-15T07:22:05;100426.47;;;5.72;62.22
66398;BME280;54877;51.504;3.894;2024-01-15T07:24:30;100426.63;;;5.67;62.39
66398;BME280;54877;51.504;3.894;2024-01-15T07:26:55;100432.75;;;5.68;61.98
66398;BME280;54877;51.504;3.894;2024-01-15T07:29:21;100434.47;;;5.69;61.93
66398;BME280;54877;51.504;3.894;2024-01-15T07:31:49;100440.91;;;5.60;62.00
66398;BME280;54877;51.504;3.894;2024-01-15T07:34:15;100444.44;;;5.59;62.17
66398;BME280;54877;51.504;3.894;2024-01-15T07:36:42;100449.00;;;5.54;62.16
66398;BME280;54877;51.504;3.894;2024-01-15T07:39:07;100445.34;;;5.58;61.56
66398;BME280;54877;51.504;3.894;2024-01-15T07:41:32;100451.63;;;5.54;61.32
66398;BME280;54877;51.504;3.894;2024-01-15T07:43:57;100455.25;;;5.50;61.00
66398;BME280;54877;51.504;3.894;2024-01-15T07:46:23;100453.13;;;5.61;60.87
66398;BME280;54877;51.504;3.894;2024-01-15T07:48:49;100457.63;;;5.58;60.66
66398;BME280;54877;51.504;3.894;2024-01-15T07:51:21;100458.56;;;5.55;60.67
66398;BME280;54877;51.504;3.894;2024-01-15T07:53:46;100465.88;;;5.47;60.96
66398;BME280;54877;51.504;3.894;2024-01-15T07:56:12;100464.19;;;5.46;60.84
66398;BME280;54877;51.504;3.894;2024-01-15T07:58:37;100471.47;;;5.38;61.31
66398;BME280;54877;51.504;3.894;2024-01-15T08:01:02;100468.94;;;5.35;61.66
66398;BME280;54877;51.504;3.894;2024-01-15T08:03:28;100467.81;;;5.42;61.68
66398;BME280;54877;51.504;3.894;2024-01-15T08:05:53;100468.56;;;5.46;61.55
66398;BME280;54877;51.504;3.894;2024-01-15T08:08:19;100475.53;;;5.47;61.53
66398;BME280;54877;51.504;3.894;2024-01-15T08:10:46;100468.56;;;5.46;61.62
66398;BME280;54877;51.504;3.894;2024-01-15T08:13:11;100480.88;;;5.44;61.88
66398;BME280;54877;51.504;3.894;2024-01-15T08:15:37;100476.38;;;5.47;61.73
66398;BME280;54877;51.504;3.894;2024-01-15T08:18:02;100476.38;;;5.47;61.91
66398;BME280;54877;51.504;3.894;2024-01-15T08:20:27;100474.66;;;5.46;62.15
66398;BME280;54877;51.504;3.894;2024-01-15T08:22:53;100481.00;;;5.41;62.16
66398;BME280;54877;51.504;3.894;2024-01-15T08:25:19;100481.63;;;5.47;62.40
66398;BME280;54877;51.504;3.894;2024-01-15T08:27:44;100473.75;;;5.47;62.01
66398;BME280;54877;51.504;3.894;2024-01-15T08:30:09;100472.94;;;5.45;61.67
66398;BME280;54877;51.504;3.894;2024-01-15T08:32:35;100469.44;;;5.46;61.77
66398;BME280;54877;51.504;3.894;2024-01-15T08:35:05;100468.34;;;5.52;61.70
66398;BME280;54877;51.504;3.894;2024-01-15T08:37:31;100481.69;;;5.46;61.76
66398;BME280;54877;51.504;3.894;2024-01-15T08:39:56;100473.75;;;5.47;61.31
66398;BME280;54877;51.504;3.894;2024-01-15T08:42:21;100483.56;;;5.42;61.19
66398;BME280;54877;51.504;3.894;2024-01-15T08:44:47;100484.97;;;5.52;61.14
66398;BME280;54877;51.504;3.894;2024-01-15T08:47:12;100474.41;;;5.54;60.82
66398;BME280;54877;51.504;3.894;2024-01-15T08:49:37;100476.06;;;5.56;60.89
66398;BME280;54877;51.504;3.894;2024-01-15T08:52:03;100476.16;;;5.53;60.94
66398;BME280;54877;51.504;3.894;2024-01-15T08:54:28;100479.47;;;5.58;60.87
66398;BME280;54877;51.504;3.894;2024-01-15T08:56:53;100475.78;;;5.64;60.94
66398;BME280;54877;51.504;3.894;2024-01-15T08:59:19;100480.94;;;5.67;60.81
66398;BME280;54877;51.504;3.894;2024-01-15T09:01:49;100480.81;;;5.70;60.64
66398;BME280;54877;51.504;3.894;2024-01-15T09:04:15;100492.78;;;5.78;60.56
66398;BME280;54877;51.504;3.894;2024-01-15T09:06:42;100491.28;;;5.71;61.05
66398;BME280;54877;51.504;3.894;2024-01-15T09:09:12;100485.50;;;5.86;61.13
66398;BME280;54877;51.504;3.894;2024-01-15T09:11:39;100491.91;;;5.78;61.07
66398;BME280;54877;51.504;3.894;2024-01-15T09:14:04;100493.63;;;5.79;61.56
66398;BME280;54877;51.504;3.894;2024-01-15T09:16:29;100485.69;;;5.80;61.15
66398;BME280;54877;51.504;3.894;2024-01-15T09:18:55;100493.22;;;5.91;61.33
66398;BME280;54877;51.504;3.894;2024-01-15T09:21:22;100497.56;;;5.92;61.28
66398;BME280;54877;51.504;3.894;2024-01-15T09:23:49;100492.78;;;6.03;60.86
66398;BME280;54877;51.504;3.894;2024-01-15T09:26:14;100497.72;;;6.12;60.78
66398;BME280;54877;51.504;3.894;2024-01-15T09:28:40;100502.31;;;6.06;60.51
66398;BME280;54877;51.504;3.894;2024-01-15T09:31:05;100502.78;;;5.94;61.10
66398;BME280;54877;51.504;3.894;2024-01-15T09:33:31;100502.09;;;6.12;60.44
66398;BME280;54877;51.504;3.894;2024-01-15T09:35:56;100496.63;;;6.18;59.74
66398;BME280;54877;51.504;3.894;2024-01-15T09:38:21;100503.72;;;6.16;59.92
66398;BME280;54877;51.504;3.894;2024-01-15T09:40:49;100503.47;;;6.22;59.75
66398;BME280;54877;51.504;3.894;2024-01-15T09:43:15;100502.84;;;6.15;60.01
66398;BME280;54877;51.504;3.894;2024-01-15T09:45:42;100504.72;;;6.12;59.94
66398;BME280;54877;51.504;3.894;2024-01-15T09:48:09;100510.56;;;6.20;60.06
66398;BME280;54877;51.504;3.894;2024-01-15T09:50:34;100511.59;;;6.16;60.40
66398;BME280;54877;51.504;3.894;2024-01-15T09:53:00;100509.75;;;6.18;60.94
66398;BME280;54877;51.504;3.894;2024-01-15T09:55:26;100510.25;;;6.27;60.87
66398;BME280;54877;51.504;3.894;2024-01-15T09:57:53;100515.63;;;6.24;59.75
66398;BME280;54877;51.504;3.894;2024-01-15T10:00:20;100519.22;;;6.22;59.56
66398;BME280;54877;51.504;3.894;2024-01-15T10:02:46;100512.88;;;6.27;59.25
66398;BME280;54877;51.504;3.894;2024-01-15T10:05:11;100516.28;;;6.31;59.28
66398;BME280;54877;51.504;3.894;2024-01-15T10:07:37;100513.97;;;6.22;59.25
66398;BME280;54877;51.504;3.894;2024-01-15T10:10:02;100522.91;;;6.18;59.83
66398;BME280;54877;51.504;3.894;2024-01-15T10:12:32;100524.59;;;6.19;59.86
66398;BME280;54877;51.504;3.894;2024-01-15T10:14:57;100529.84;;;6.19;60.09
66398;BME280;54877;51.504;3.894;2024-01-15T10:17:23;100543.72;;;6.24;60.24
66398;BME280;54877;51.504;3.894;2024-01-15T10:19:52;100536.25;;;6.12;59.91
66398;BME280;54877;51.504;3.894;2024-01-15T10:22:18;100539.09;;;6.06;60.38
66398;BME280;54877;51.504;3.894;2024-01-15T10:24:43;100540.63;;;6.13;60.17
66398;BME280;54877;51.504;3.894;2024-01-15T10:27:09;100551.25;;;6.10;60.31
66398;BME280;54877;51.504;3.894;2024-01-15T10:29:35;100547.66;;;5.87;62.34
66398;BME280;54877;51.504;3.894;2024-01-15T10:32:01;100552.50;;;5.73;64.33
66398;BME280;54877;51.504;3.894;2024-01-15T10:34:27;100558.59;;;5.49;65.77
66398;BME280;54877;51.504;3.894;2024-01-15T10:36:53;100565.97;;;5.38;67.53
66398;BME280;54877;51.504;3.894;2024-01-15T10:39:23;100566.75;;;5.40;68.46
66398;BME280;54877;51.504;3.894;2024-01-15T10:41:49;100560.03;;;5.31;69.39
66398;BME280;54877;51.504;3.894;2024-01-15T10:44:15;100567.16;;;5.28;70.19
66398;BME280;54877;51.504;3.894;2024-01-15T10:46:41;100573.34;;;5.25;70.30
66398;BME280;54877;51.504;3.894;2024-01-15T10:49:08;100578.44;;;5.04;70.13
66398;BME280;54877;51.504;3.894;2024-01-15T10:51:36;100583.63;;;4.78;70.18
66398;BME280;54877;51.504;3.894;2024-01-15T10:54:01;100579.94;;;4.55;70.38
66398;BME280;54877;51.504;3.894;2024-01-15T10:56:27;100568.69;;;4.50;70.22
66398;BME280;54877;51.504;3.894;2024-01-15T10:58:52;100584.31;;;4.55;70.81
66398;BME280;54877;51.504;3.894;2024-01-15T11:01:19;100575.56;;;4.54;70.56
66398;BME280;54877;51.504;3.894;2024-01-15T11:03:45;100577.47;;;4.49;70.89
66398;BME280;54877;51.504;3.894;2024-01-15T11:06:18;100556.44;;;4.52;70.57
66398;BME280;54877;51.504;3.894;2024-01-15T11:08:50;100556.19;;;4.60;70.56
66398;BME280;54877;51.504;3.894;2024-01-15T11:11:17;100557.59;;;4.71;70.90
66398;BME280;54877;51.504;3.894;2024-01-15T11:13:43;100559.63;;;4.90;70.45
66398;BME280;54877;51.504;3.894;2024-01-15T11:16:12;100565.22;;;5.07;70.24
66398;BME280;54877;51.504;3.894;2024-01-15T11:18:42;100571.88;;;5.17;69.62
66398;BME280;54877;51.504;3.894;2024-01-15T11:21:26;100573.00;;;5.10;70.16
66398;BME280;54877;51.504;3.894;2024-01-15T11:23:56;100571.28;;;5.09;70.08
66398;BME280;54877;51.504;3.894;2024-01-15T11:29:00;100580.81;;;4.84;69.95
66398;BME280;54877;51.504;3.894;2024-01-15T11:34:07;100591.69;;;4.71;70.80
66398;BME280;54877;51.504;3.894;2024-01-15T11:42:01;100625.00;;;4.37;71.30
66398;BME280;54877;51.504;3.894;2024-01-15T11:44:28;100627.41;;;4.14;72.28
66398;BME280;54877;51.504;3.894;2024-01-15T11:46:58;100622.63;;;3.96;72.68
66398;BME280;54877;51.504;3.894;2024-01-15T11:52:05;100631.19;;;3.69;73.05
66398;BME280;54877;51.504;3.894;2024-01-15T11:54:32;100628.72;;;3.64;73.58
66398;BME280;54877;51.504;3.894;2024-01-15T11:57:04;100638.91;;;3.75;73.42
66398;BME280;54877;51.504;3.894;2024-01-15T11:59:35;100628.72;;;3.63;73.99
66398;BME280;54877;51.504;3.894;2024-01-15T12:02:00;100632.50;;;3.51;74.14
66398;BME280;54877;51.504;3.894;2024-01-15T12:04:27;100634.97;;;3.59;74.43
66398;BME280;54877;51.504;3.894;2024-01-15T12:06:52;100632.84;;;3.73;73.94
66398;BME280;54877;51.504;3.894;2024-01-15T12:09:20;100641.59;;;3.72;73.73
66398;BME280;54877;51.504;3.894;2024-01-15T12:11:47;100632.81;;;3.74;73.76
66398;BME280;54877;51.504;3.894;2024-01-15T12:14:24;100635.28;;;3.80;73.68
66398;BME280;54877;51.504;3.894;2024-01-15T12:16:49;100638.56;;;3.87;73.69
66398;BME280;54877;51.504;3.894;2024-01-15T12:19:15;100646.91;;;4.02;73.04
66398;BME280;54877;51.504;3.894;2024-01-15T12:21:41;100648.59;;;4.05;72.63
66398;BME280;54877;51.504;3.894;2024-01-15T12:24:09;100654.06;;;3.96;73.18
66398;BME280;54877;51.504;3.894;2024-01-15T12:26:35;100657.69;;;3.92;73.26
66398;BME280;54877;51.504;3.894;2024-01-15T12:29:06;100656.97;;;3.85;73.72
66398;BME280;54877;51.504;3.894;2024-01-15T12:31:32;100657.03;;;3.82;74.07
66398;BME280;54877;51.504;3.894;2024-01-15T12:33:57;100656.25;;;3.79;73.96
66398;BME280;54877;51.504;3.894;2024-01-15T12:36:23;100666.66;;;3.82;73.78
66398;BME280;54877;51.504;3.894;2024-01-15T12:38:48;100642.25;;;3.80;73.79
66398;BME280;54877;51.504;3.894;2024-01-15T12:41:13;100621.81;;;3.94;73.03
66398;BME280;54877;51.504;3.894;2024-01-15T12:43:40;100621.66;;;4.00;72.36
66398;BME280;54877;51.504;3.894;2024-01-15T12:46:05;100623.22;;;4.07;71.83
66398;BME280;54877;51.504;3.894;2024-01-15T12:48:31;100624.50;;;4.23;71.19
66398;BME280;54877;51.504;3.894;2024-01-15T12:50:56;100619.50;;;4.46;71.09
66398;BME280;54877;51.504;3.894;2024-01-15T12:53:21;100616.41;;;4.63;70.90
66398;BME280;54877;51.504;3.894;2024-01-15T12:55:47;100608.91;;;4.80;70.53
66398;BME280;54877;51.504;3.894;2024-01-15T12:58:12;100625.22;;;4.90;70.71
66398;BME280;54877;51.504;3.894;2024-01-15T13:00:37;100640.78;;;4.96;70.29
66398;BME280;54877;51.504;3.894;2024-01-15T13:03:03;100629.50;;;4.92;70.68
66398;BME280;54877;51.504;3.894;2024-01-15T13:05:28;100625.59;;;4.78;71.07